Regan, North Dakota
Current Conditions -  °F | °C
As of 7:52 PM on Friday 24 Oct 2014 (Local Time) from KBIS Reporting Station
Clear Clear  
Wind Chill: 57°   Ceiling: Unl
Heat Index: 57°   Visibility: 10mi
Dew Point: 33°   Wind: 8mph
Humidity: 40%   Direction: 270°W
Pressure: 29.99"   Gusts: NA
Location:  47.16°N, 100.53°W
Report Text: KBIS 250052Z 27007KT 10SM CLR 14/01 A2999 RMK AO2 SLP163 T01390006
Loading
Personal Weather Stations






























Interactive Weather Map New forecast layout! Learn more

10-Day Weather Forecast

Advertisements
Track Severe Weather on mobile